Daisinmaru No.11 — JK5352 — position and weather

sailwx.info

Track history (hours):
 
Tides and Currents Weather Stations Pressure Air Temp Water Temp Dewpoint Dewpoint Depression Visibility Wind Speed Wind Dir Waves Ship Positions

Daisinmaru No.11

Last reported at 2014-Jul-29 02:34 UTC. Time now 2014-Jul-29 02:35 UTC.
Position N 35°28' E 139°39'.

Length 52 m; draft 5.2 m.

Type: Cargo ship. MMSI: 431000667.

Date/timePositionNaut miles runAvg speedWind from/ knotsBaromVisibWave heightAir tempDewpointWater temp
2014-Jul-29 02:34N 35°28' E 139°39'0 0.2
2014-Jul-29 01:33N 35°28' E 139°39'0 0.0
2014-Jul-29 00:33N 35°28' E 139°39'0 0.0
2014-Jul-28 23:33N 35°28' E 139°39'0 0.0
2014-Jul-28 07:15N 35°28' E 139°39'0 0.0
2014-Jul-28 06:34N 35°28' E 139°39'0 0.0
2014-Jul-28 05:34N 35°28' E 139°39'0 0.0
2014-Jul-28 04:34N 35°28' E 139°39'0 0.0
2014-Jul-28 03:34N 35°28' E 139°39'0 0.0
2014-Jul-28 02:34N 35°28' E 139°39'1 1.4
2014-Jul-28 01:33N 35°27' E 139°40'1110.6
2014-Jul-28 00:33N 35°30' E 139°53'6 5.7
2014-Jul-27 23:33N 35°28' E 139°60'0 0.0
2014-Jul-26 10:29N 35°28' E 139°60'0 0.0
2014-Jul-26 09:33N 35°28' E 139°60'8 7.8
2014-Jul-26 08:33N 35°32' E 139°52'5 5.1
2014-Jul-26 07:33N 35°35' E 139°46'0 0.0
2014-Jul-26 06:33N 35°35' E 139°46'0 0.0
2014-Jul-26 05:34N 35°35' E 139°46'0 0.0
2014-Jul-26 04:33N 35°35' E 139°46'0 0.0
2014-Jul-26 03:33N 35°35' E 139°46'1 0.9
2014-Jul-26 02:34N 35°34' E 139°48'0 0.0
2014-Jul-26 01:33N 35°34' E 139°48'5 4.6
2014-Jul-26 00:33N 35°32' E 139°53'8 0.5
2014-Jul-25 09:33N 35°27' E 139°60'0 0.1
2014-Jul-25 08:33N 35°27' E 139°60'1 1.3
2014-Jul-25 07:34N 35°29' E 139°59'9 9.3
2014-Jul-25 06:33N 35°30' E 139°48'4 4.2
2014-Jul-25 05:33N 35°29' E 139°43'0 0.0
2014-Jul-25 04:33N 35°29' E 139°43'0 0.0
2014-Jul-25 03:33N 35°29' E 139°43'6 5.8
2014-Jul-25 02:33N 35°30' E 139°50'9 8.5
2014-Jul-25 01:33N 35°27' E 139°60'0 0.0
2014-Jul-24 01:10N 35°27' E 139°60'4 6.0
2014-Jul-24 00:34N 35°31' E 140°01'4 4.0
2014-Jul-23 23:34N 35°32' E 140°06'0 0.0
2014-Jul-23 08:33N 35°32' E 140°06'3 3.4
2014-Jul-23 07:34N 35°34' E 140°02'9 9.4
2014-Jul-23 06:33N 35°34' E 139°50'3 3.3
2014-Jul-23 05:34N 35°35' E 139°46'0 0.0
2014-Jul-23 04:33N 35°35' E 139°46'0 0.0
2014-Jul-23 03:34N 35°35' E 139°46'0 0.0
2014-Jul-23 02:34N 35°35' E 139°46'0 0.1
2014-Jul-23 01:34N 35°35' E 139°46'1 1.3
2014-Jul-23 00:33N 35°34' E 139°48'1010.3
2014-Jul-22 23:34N 35°29' E 139°59'2 0.1
2014-Jul-22 09:20N 35°27' E 139°60'0 0.0
2014-Jul-22 08:33N 35°27' E 139°60'1 0.8
2014-Jul-22 07:33N 35°28' E 139°59'10 9.6
2014-Jul-22 06:33N 35°30' E 139°48'4 4.3
2014-Jul-22 05:33N 35°29' E 139°43'0 0.0
2014-Jul-22 04:33N 35°29' E 139°43'0 0.0
2014-Jul-22 03:33N 35°29' E 139°43'6 6.2
2014-Jul-22 02:33N 35°30' E 139°50'8 8.0
2014-Jul-22 01:33N 35°27' E 139°59'  
Track history (hours):
 
Tides and Currents Weather Stations Pressure Air Temp Water Temp Dewpoint Dewpoint Depression Visibility Wind Speed Wind Dir Waves Ship Positions

Daisinmaru No.11

Last reported at 2014-Jul-29 02:34 UTC. Time now 2014-Jul-29 02:35 UTC.
Position N 35°28' E 139°39'.

Length 52 m; draft 5.2 m.

Type: Cargo ship. MMSI: 431000667.

Date/timePositionNaut miles runAvg speedWind from/ knotsBaromVisibWave heightAir tempDewpointWater temp
2014-Jul-29 02:34N 35°28' E 139°39'0 0.2
2014-Jul-29 01:33N 35°28' E 139°39'0 0.0
2014-Jul-29 00:33N 35°28' E 139°39'0 0.0
2014-Jul-28 23:33N 35°28' E 139°39'0 0.0
2014-Jul-28 07:15N 35°28' E 139°39'0 0.0
2014-Jul-28 06:34N 35°28' E 139°39'0 0.0
2014-Jul-28 05:34N 35°28' E 139°39'0 0.0
2014-Jul-28 04:34N 35°28' E 139°39'0 0.0
2014-Jul-28 03:34N 35°28' E 139°39'0 0.0
2014-Jul-28 02:34N 35°28' E 139°39'1 1.4
2014-Jul-28 01:33N 35°27' E 139°40'1110.6
2014-Jul-28 00:33N 35°30' E 139°53'6 5.7
2014-Jul-27 23:33N 35°28' E 139°60'0 0.0
2014-Jul-26 10:29N 35°28' E 139°60'0 0.0
2014-Jul-26 09:33N 35°28' E 139°60'8 7.8
2014-Jul-26 08:33N 35°32' E 139°52'5 5.1
2014-Jul-26 07:33N 35°35' E 139°46'0 0.0
2014-Jul-26 06:33N 35°35' E 139°46'0 0.0
2014-Jul-26 05:34N 35°35' E 139°46'0 0.0
2014-Jul-26 04:33N 35°35' E 139°46'0 0.0
2014-Jul-26 03:33N 35°35' E 139°46'1 0.9
2014-Jul-26 02:34N 35°34' E 139°48'0 0.0
2014-Jul-26 01:33N 35°34' E 139°48'5 4.6
2014-Jul-26 00:33N 35°32' E 139°53'8 0.5
2014-Jul-25 09:33N 35°27' E 139°60'0 0.1
2014-Jul-25 08:33N 35°27' E 139°60'1 1.3
2014-Jul-25 07:34N 35°29' E 139°59'9 9.3
2014-Jul-25 06:33N 35°30' E 139°48'4 4.2
2014-Jul-25 05:33N 35°29' E 139°43'0 0.0
2014-Jul-25 04:33N 35°29' E 139°43'0 0.0
2014-Jul-25 03:33N 35°29' E 139°43'6 5.8
2014-Jul-25 02:33N 35°30' E 139°50'9 8.5
2014-Jul-25 01:33N 35°27' E 139°60'0 0.0
2014-Jul-24 01:10N 35°27' E 139°60'4 6.0
2014-Jul-24 00:34N 35°31' E 140°01'4 4.0
2014-Jul-23 23:34N 35°32' E 140°06'0 0.0
2014-Jul-23 08:33N 35°32' E 140°06'3 3.4
2014-Jul-23 07:34N 35°34' E 140°02'9 9.4
2014-Jul-23 06:33N 35°34' E 139°50'3 3.3
2014-Jul-23 05:34N 35°35' E 139°46'0 0.0
2014-Jul-23 04:33N 35°35' E 139°46'0 0.0
2014-Jul-23 03:34N 35°35' E 139°46'0 0.0
2014-Jul-23 02:34N 35°35' E 139°46'0 0.1
2014-Jul-23 01:34N 35°35' E 139°46'1 1.3
2014-Jul-23 00:33N 35°34' E 139°48'1010.3
2014-Jul-22 23:34N 35°29' E 139°59'2 0.1
2014-Jul-22 09:20N 35°27' E 139°60'0 0.0
2014-Jul-22 08:33N 35°27' E 139°60'1 0.8
2014-Jul-22 07:33N 35°28' E 139°59'10 9.6
2014-Jul-22 06:33N 35°30' E 139°48'4 4.3
2014-Jul-22 05:33N 35°29' E 139°43'0 0.0
2014-Jul-22 04:33N 35°29' E 139°43'0 0.0
2014-Jul-22 03:33N 35°29' E 139°43'6 6.2
2014-Jul-22 02:33N 35°30' E 139°50'8 8.0
2014-Jul-22 01:33N 35°27' E 139°59'  

Dump ship's entire track history